createdAt,value
2022-12-12T00:00:35.779Z,1013.03
2022-12-12T00:03:05.527Z,1013.00
2022-12-12T00:05:34.815Z,1012.92
2022-12-12T00:08:01.953Z,1013.00
2022-12-12T00:10:30.821Z,1013.10
2022-12-12T00:12:57.606Z,1013.09
2022-12-12T00:15:25.702Z,1013.31
2022-12-12T00:17:52.579Z,1013.40
2022-12-12T00:20:24.953Z,1013.48
2022-12-12T00:22:51.760Z,1013.56
2022-12-12T00:25:18.842Z,1013.68
2022-12-12T00:27:45.808Z,1013.64
2022-12-12T00:30:13.553Z,1013.72
2022-12-12T00:32:40.379Z,1013.84
2022-12-12T00:35:08.842Z,1013.89
2022-12-12T00:37:37.359Z,1013.92
2022-12-12T00:40:05.477Z,1013.93
2022-12-12T00:42:32.474Z,1014.00
2022-12-12T00:44:59.230Z,1014.09
2022-12-12T00:47:26.383Z,1014.09
2022-12-12T00:49:53.425Z,1014.23
2022-12-12T00:52:21.550Z,1014.24
2022-12-12T00:54:50.000Z,1014.24
2022-12-12T00:57:19.581Z,1014.23
2022-12-12T00:59:46.420Z,1014.39
2022-12-12T01:02:13.585Z,1014.42
2022-12-12T01:04:40.577Z,1014.48
2022-12-12T01:07:07.541Z,1014.49
2022-12-12T01:09:34.461Z,1014.57
2022-12-12T01:12:03.093Z,1014.64
2022-12-12T01:14:32.134Z,1014.62
2022-12-12T01:17:01.039Z,1014.61
2022-12-12T01:19:27.936Z,1014.60
2022-12-12T01:21:55.042Z,1014.61
2022-12-12T01:24:22.066Z,1014.63
2022-12-12T01:26:49.547Z,1014.59
2022-12-12T01:29:17.720Z,1014.64
2022-12-12T01:31:44.492Z,1014.70
2022-12-12T01:34:11.490Z,1014.74
2022-12-12T01:36:38.315Z,1014.79
2022-12-12T01:39:06.268Z,1014.83
2022-12-12T01:41:33.065Z,1014.80
2022-12-12T01:44:01.818Z,1014.86
2022-12-12T01:46:42.330Z,1014.88
2022-12-12T01:49:17.897Z,1014.83
2022-12-12T01:51:46.152Z,1014.93
2022-12-12T01:54:17.153Z,1014.94
2022-12-12T01:56:45.982Z,1015.00
2022-12-12T01:59:17.703Z,1014.98
2022-12-12T02:01:46.311Z,1014.89
2022-12-12T02:04:15.890Z,1015.00
2022-12-12T02:06:43.282Z,1015.05
2022-12-12T02:09:13.693Z,1015.16
2022-12-12T02:11:44.903Z,1015.08
2022-12-12T02:14:14.924Z,1015.14
2022-12-12T02:17:09.017Z,1015.15
2022-12-12T02:20:20.991Z,1015.16
2022-12-12T02:23:22.664Z,1015.20
2022-12-12T02:26:10.181Z,1015.28
2022-12-12T02:29:05.481Z,1015.28
2022-12-12T02:31:47.425Z,1015.34
2022-12-12T02:34:22.362Z,1015.34
2022-12-12T02:36:57.819Z,1015.33
2022-12-12T02:39:33.105Z,1015.26
2022-12-12T02:42:05.063Z,1015.32
2022-12-12T02:44:38.928Z,1015.33
2022-12-12T02:47:13.586Z,1015.46
2022-12-12T02:49:46.281Z,1015.45
2022-12-12T02:52:15.875Z,1015.49
2022-12-12T02:54:44.906Z,1015.58
2022-12-12T02:57:14.534Z,1015.65
2022-12-12T02:59:44.379Z,1015.71
2022-12-12T03:02:38.204Z,1015.74
2022-12-12T03:05:27.523Z,1015.66
2022-12-12T03:08:06.473Z,1015.62
2022-12-12T03:10:45.803Z,1015.68
2022-12-12T03:13:23.174Z,1015.65
2022-12-12T03:15:58.457Z,1015.71
2022-12-12T03:18:33.559Z,1015.72
2022-12-12T03:21:03.761Z,1015.71
2022-12-12T03:23:37.861Z,1015.74
2022-12-12T03:26:11.040Z,1015.85
2022-12-12T03:28:42.614Z,1015.85
2022-12-12T03:31:11.988Z,1015.88
2022-12-12T03:33:50.108Z,1015.87
2022-12-12T03:36:22.916Z,1015.95
2022-12-12T03:38:55.668Z,1015.91
2022-12-12T03:41:27.590Z,1015.92
2022-12-12T03:43:58.227Z,1016.06
2022-12-12T03:46:31.229Z,1016.03
2022-12-12T03:49:05.409Z,1016.12
2022-12-12T03:51:36.722Z,1016.18
2022-12-12T03:54:08.170Z,1016.20
2022-12-12T03:56:41.935Z,1016.19
2022-12-12T03:59:11.489Z,1016.15
2022-12-12T04:01:46.607Z,1016.13
2022-12-12T04:04:22.122Z,1016.10
2022-12-12T04:06:56.533Z,1016.07
2022-12-12T04:09:26.675Z,1016.28
2022-12-12T04:12:00.518Z,1016.13
2022-12-12T04:14:44.245Z,1016.20
2022-12-12T04:17:15.420Z,1016.19
2022-12-12T04:19:55.125Z,1016.25
2022-12-12T04:22:27.628Z,1016.07
2022-12-12T04:24:58.403Z,1016.20
2022-12-12T04:27:31.352Z,1016.23
2022-12-12T04:30:03.249Z,1016.26
2022-12-12T04:32:34.342Z,1016.40
2022-12-12T04:35:10.376Z,1016.41
2022-12-12T04:37:43.109Z,1016.41
2022-12-12T04:40:13.553Z,1016.35
2022-12-12T04:42:45.139Z,1016.37
2022-12-12T04:45:19.188Z,1016.41
2022-12-12T04:47:50.214Z,1016.34
2022-12-12T04:50:22.550Z,1016.30
2022-12-12T04:52:53.378Z,1016.22
2022-12-12T04:55:24.541Z,1016.26
2022-12-12T04:57:53.288Z,1016.28
2022-12-12T05:00:20.736Z,1016.34
2022-12-12T05:02:57.723Z,1016.31
2022-12-12T05:05:32.382Z,1016.40
2022-12-12T05:08:05.710Z,1016.45
2022-12-12T05:10:32.856Z,1016.55
2022-12-12T05:13:00.855Z,1016.50
2022-12-12T05:15:29.380Z,1016.43
2022-12-12T05:18:00.070Z,1016.51
2022-12-12T05:20:28.357Z,1016.37
2022-12-12T05:22:56.295Z,1016.44
2022-12-12T05:25:23.167Z,1016.42
2022-12-12T05:27:50.198Z,1016.42
2022-12-12T05:30:17.006Z,1016.38
2022-12-12T05:32:44.963Z,1016.48
2022-12-12T05:35:12.067Z,1016.48
2022-12-12T05:37:43.498Z,1016.62
2022-12-12T05:40:13.922Z,1016.56
2022-12-12T05:42:41.242Z,1016.55
2022-12-12T05:45:09.762Z,1016.55
2022-12-12T05:47:38.070Z,1016.59
2022-12-12T05:50:07.540Z,1016.54
2022-12-12T05:52:34.516Z,1016.57
2022-12-12T05:55:03.057Z,1016.59
2022-12-12T05:57:30.091Z,1016.63
2022-12-12T05:59:57.994Z,1016.63
2022-12-12T06:02:24.943Z,1016.75
2022-12-12T06:04:52.061Z,1016.86
2022-12-12T06:07:19.896Z,1016.86
2022-12-12T06:09:48.155Z,1016.89
2022-12-12T06:12:16.352Z,1016.84
2022-12-12T06:14:43.137Z,1016.85
2022-12-12T06:17:10.522Z,1016.89
2022-12-12T06:19:40.993Z,1016.76
2022-12-12T06:22:07.885Z,1016.81
2022-12-12T06:24:34.873Z,1016.91
2022-12-12T06:27:05.471Z,1016.83
2022-12-12T06:29:33.662Z,1016.90
2022-12-12T06:32:01.026Z,1016.95
2022-12-12T06:34:28.572Z,1016.94
2022-12-12T06:36:55.833Z,1016.92
2022-12-12T06:39:22.817Z,1017.04
2022-12-12T06:44:35.698Z,1017.11
2022-12-12T06:47:02.558Z,1017.10
2022-12-12T06:49:29.579Z,1017.08
2022-12-12T06:51:56.479Z,1017.09
2022-12-12T06:54:23.344Z,1017.15
2022-12-12T06:56:50.320Z,1017.16
2022-12-12T06:59:17.294Z,1017.26
2022-12-12T07:01:46.852Z,1017.18
2022-12-12T07:04:14.399Z,1017.31
2022-12-12T07:06:41.750Z,1017.36
2022-12-12T07:09:08.836Z,1017.28
2022-12-12T07:11:35.748Z,1017.38
2022-12-12T07:14:03.681Z,1017.33
2022-12-12T07:16:30.526Z,1017.34
2022-12-12T07:18:59.980Z,1017.33
2022-12-12T07:21:26.770Z,1017.43
2022-12-12T07:23:53.668Z,1017.33
2022-12-12T07:26:22.688Z,1017.39
2022-12-12T07:28:51.140Z,1017.38
2022-12-12T07:31:21.233Z,1017.38
2022-12-12T07:33:49.440Z,1017.35
2022-12-12T07:36:17.622Z,1017.36
2022-12-12T07:38:44.648Z,1017.32
2022-12-12T07:41:13.498Z,1017.46
2022-12-12T07:43:44.702Z,1017.46
2022-12-12T07:46:14.888Z,1017.43
2022-12-12T07:48:42.229Z,1017.43
2022-12-12T07:51:10.330Z,1017.38
2022-12-12T07:53:38.507Z,1017.37
2022-12-12T07:56:06.309Z,1017.27
2022-12-12T07:58:33.587Z,1017.19
2022-12-12T08:01:00.558Z,1017.07
2022-12-12T08:03:27.792Z,1016.98
2022-12-12T08:05:54.756Z,1016.90
2022-12-12T08:08:21.619Z,1016.81
2022-12-12T08:10:49.988Z,1016.78
2022-12-12T08:13:16.734Z,1016.67
2022-12-12T08:15:45.092Z,1016.65
2022-12-12T08:18:12.100Z,1016.53
2022-12-12T08:20:40.125Z,1016.51
2022-12-12T08:23:06.918Z,1016.34
2022-12-12T08:25:34.899Z,1016.29
2022-12-12T08:28:03.389Z,1016.16
2022-12-12T08:30:31.200Z,1016.10
2022-12-12T08:32:58.135Z,1016.08
2022-12-12T08:35:26.054Z,1016.04
2022-12-12T08:37:53.913Z,1015.91
2022-12-12T08:40:20.725Z,1016.13
2022-12-12T08:42:47.614Z,1015.91
2022-12-12T08:45:16.286Z,1015.74
2022-12-12T08:47:43.543Z,1015.68
2022-12-12T08:50:10.649Z,1015.56
2022-12-12T08:52:37.609Z,1015.46
2022-12-12T08:55:04.935Z,1015.37
2022-12-12T08:57:31.825Z,1015.34
2022-12-12T08:59:58.617Z,1015.30
2022-12-12T09:02:27.373Z,1015.20
2022-12-12T09:04:54.481Z,1015.17
2022-12-12T09:07:22.366Z,1015.10
2022-12-12T09:09:49.263Z,1015.01
2022-12-12T09:12:16.350Z,1014.95
2022-12-12T09:14:43.212Z,1014.87
2022-12-12T09:17:10.032Z,1014.84
2022-12-12T09:19:38.416Z,1014.76
2022-12-12T09:22:05.209Z,1014.71
2022-12-12T09:24:32.097Z,1014.64
2022-12-12T09:26:58.862Z,1014.64
2022-12-12T09:29:25.773Z,1014.71
2022-12-12T09:31:52.560Z,1014.52
2022-12-12T09:34:19.645Z,1014.46
2022-12-12T09:36:47.755Z,1014.46
2022-12-12T09:39:14.579Z,1014.43
2022-12-12T09:41:41.882Z,1014.32
2022-12-12T09:44:12.682Z,1014.31
2022-12-12T09:46:43.684Z,1014.22
2022-12-12T09:49:15.905Z,1014.11
2022-12-12T09:51:46.008Z,1014.03
2022-12-12T09:54:22.005Z,1013.93
2022-12-12T09:57:02.833Z,1013.87
2022-12-12T09:59:39.048Z,1013.80
2022-12-12T10:02:23.881Z,1013.65
2022-12-12T10:05:03.082Z,1013.64
2022-12-12T10:07:38.454Z,1013.46
2022-12-12T10:10:16.496Z,1013.49
2022-12-12T10:12:45.276Z,1013.45
2022-12-12T10:15:28.211Z,1013.33
2022-12-12T10:17:57.457Z,1013.27
2022-12-12T10:20:27.691Z,1013.24
2022-12-12T10:22:59.898Z,1013.22
2022-12-12T10:25:39.240Z,1013.35
2022-12-12T10:28:12.190Z,1013.31
2022-12-12T10:30:52.474Z,1013.26
2022-12-12T10:33:30.228Z,1013.18
2022-12-12T10:36:09.166Z,1013.22
2022-12-12T10:38:58.435Z,1013.20
2022-12-12T10:41:39.968Z,1013.13
2022-12-12T10:44:18.147Z,1013.00
2022-12-12T10:46:48.842Z,1012.93
2022-12-12T10:49:18.233Z,1012.90
2022-12-12T10:51:48.709Z,1012.88
2022-12-12T10:54:18.345Z,1012.84
2022-12-12T10:57:14.120Z,1012.79
2022-12-12T10:59:48.477Z,1012.73
2022-12-12T11:02:27.361Z,1012.76
2022-12-12T11:05:00.297Z,1012.82
2022-12-12T11:07:28.562Z,1012.69
2022-12-12T11:09:58.976Z,1012.84
2022-12-12T11:12:35.789Z,1012.85
2022-12-12T11:15:06.396Z,1012.71
2022-12-12T11:17:34.809Z,1012.64
2022-12-12T11:20:05.965Z,1012.64
2022-12-12T11:22:35.391Z,1012.57
2022-12-12T11:25:02.307Z,1012.54
2022-12-12T11:27:34.415Z,1012.56
2022-12-12T11:30:04.842Z,1012.43
2022-12-12T11:32:38.332Z,1012.48
2022-12-12T11:35:22.153Z,1012.43
2022-12-12T11:37:53.601Z,1012.40
2022-12-12T11:40:24.742Z,1012.37
2022-12-12T11:43:08.187Z,1012.42
2022-12-12T11:45:35.341Z,1012.33
2022-12-12T11:48:07.569Z,1012.30
2022-12-12T11:50:44.881Z,1012.26
2022-12-12T11:53:11.648Z,1012.31
2022-12-12T11:55:50.291Z,1012.30
2022-12-12T11:58:25.924Z,1012.37
2022-12-12T12:01:04.530Z,1012.27
2022-12-12T12:03:52.958Z,1012.27
2022-12-12T12:06:35.485Z,1012.16
2022-12-12T12:09:22.608Z,1012.11
2022-12-12T12:12:02.296Z,1012.14
2022-12-12T12:14:51.806Z,1012.04
2022-12-12T12:17:31.812Z,1012.04
2022-12-12T12:20:08.590Z,1012.00
2022-12-12T12:22:47.954Z,1011.99
2022-12-12T12:25:30.375Z,1012.02
2022-12-12T12:28:08.430Z,1012.07
2022-12-12T12:30:49.049Z,1012.02
2022-12-12T12:33:30.386Z,1012.05
2022-12-12T12:36:09.514Z,1012.04
2022-12-12T12:39:03.205Z,1012.18
2022-12-12T12:41:58.507Z,1011.97
2022-12-12T12:44:45.295Z,1012.03
2022-12-12T12:47:26.345Z,1012.15
2022-12-12T12:49:59.166Z,1012.10
2022-12-12T12:52:33.513Z,1012.12
2022-12-12T12:55:01.359Z,1012.10
2022-12-12T12:57:35.245Z,1012.14
2022-12-12T13:00:06.314Z,1012.15
2022-12-12T13:02:45.860Z,1012.23
2022-12-12T13:05:18.471Z,1012.25
2022-12-12T13:07:57.039Z,1012.42
2022-12-12T13:10:26.612Z,1012.34
2022-12-12T13:12:59.955Z,1012.38
2022-12-12T13:15:30.831Z,1012.41
2022-12-12T13:18:04.190Z,1012.44
2022-12-12T13:20:34.962Z,1012.45
2022-12-12T13:23:16.339Z,1012.51
2022-12-12T13:25:48.813Z,1012.54
2022-12-12T13:28:24.561Z,1012.56
2022-12-12T13:31:23.222Z,1012.57
2022-12-12T13:33:54.731Z,1012.65
2022-12-12T13:36:29.592Z,1012.65
2022-12-12T13:39:00.466Z,1012.74
2022-12-12T13:41:27.535Z,1012.81
2022-12-12T13:43:58.442Z,1012.85
2022-12-12T13:46:43.220Z,1012.95
2022-12-12T13:49:31.887Z,1012.88
2022-12-12T13:52:35.168Z,1012.91
2022-12-12T13:55:23.542Z,1012.95
2022-12-12T13:58:32.318Z,1013.08
2022-12-12T14:01:33.538Z,1013.22
2022-12-12T14:04:00.913Z,1013.24
2022-12-12T14:06:30.325Z,1013.28
2022-12-12T14:08:58.334Z,1013.31
2022-12-12T14:11:35.975Z,1013.51
2022-12-12T14:14:15.398Z,1013.60
2022-12-12T14:16:43.425Z,1013.72
2022-12-12T14:19:29.545Z,1013.80
2022-12-12T14:22:00.183Z,1013.77
2022-12-12T14:24:54.889Z,1013.89
2022-12-12T14:27:38.361Z,1013.92
2022-12-12T14:30:19.205Z,1013.97
2022-12-12T14:32:52.138Z,1014.02
2022-12-12T14:35:31.411Z,1014.07
2022-12-12T14:38:12.724Z,1014.20
2022-12-12T14:40:45.240Z,1014.28
2022-12-12T14:43:22.158Z,1014.46
2022-12-12T14:45:55.002Z,1014.51
2022-12-12T14:48:24.333Z,1014.62
2022-12-12T14:50:55.117Z,1014.69
2022-12-12T14:53:26.212Z,1014.85
2022-12-12T14:55:57.226Z,1014.86
2022-12-12T14:58:29.108Z,1014.94
2022-12-12T15:00:59.066Z,1015.01
2022-12-12T15:03:31.606Z,1015.09
2022-12-12T15:06:26.034Z,1015.18
2022-12-12T15:08:56.239Z,1015.21
2022-12-12T15:11:25.295Z,1015.39
2022-12-12T15:13:55.665Z,1015.58
2022-12-12T15:16:29.742Z,1015.67
2022-12-12T15:18:59.213Z,1015.70
2022-12-12T15:21:26.150Z,1015.75
2022-12-12T15:23:55.809Z,1015.85
2022-12-12T15:26:25.428Z,1015.98
2022-12-12T15:28:52.325Z,1016.24
2022-12-12T15:31:20.505Z,1016.22
2022-12-12T15:33:48.341Z,1016.19
2022-12-12T15:36:19.033Z,1016.27
2022-12-12T15:39:01.668Z,1016.41
2022-12-12T15:41:30.949Z,1016.45
2022-12-12T15:43:57.929Z,1016.63
2022-12-12T15:46:25.216Z,1016.62
2022-12-12T15:48:52.388Z,1016.77
2022-12-12T15:51:25.004Z,1016.86
2022-12-12T15:53:55.003Z,1016.83
2022-12-12T15:56:39.558Z,1016.86
2022-12-12T15:59:26.644Z,1016.98
2022-12-12T16:02:14.440Z,1017.01
2022-12-12T16:04:58.586Z,1017.02
2022-12-12T16:07:27.815Z,1017.10
2022-12-12T16:10:08.806Z,1017.07
2022-12-12T16:13:07.797Z,1017.15
2022-12-12T16:15:41.658Z,1017.19
2022-12-12T16:18:18.907Z,1017.27
2022-12-12T16:20:52.156Z,1017.29
2022-12-12T16:23:22.767Z,1017.24
2022-12-12T16:25:50.372Z,1017.32
2022-12-12T16:28:25.513Z,1017.44
2022-12-12T16:30:57.179Z,1017.51
2022-12-12T16:33:32.263Z,1017.61
2022-12-12T16:36:01.283Z,1017.70
2022-12-12T16:38:30.165Z,1017.64
2022-12-12T16:41:00.002Z,1017.70
2022-12-12T16:43:27.814Z,1017.77
2022-12-12T16:45:58.632Z,1017.93
2022-12-12T16:48:27.873Z,1017.82
2022-12-12T16:50:57.813Z,1017.99
2022-12-12T16:53:26.023Z,1017.97
2022-12-12T16:55:53.574Z,1018.01
2022-12-12T16:58:22.013Z,1018.04
2022-12-12T17:00:49.882Z,1018.10
2022-12-12T17:03:19.476Z,1018.19
2022-12-12T17:05:48.999Z,1018.22
2022-12-12T17:08:17.445Z,1018.28
2022-12-12T17:10:46.923Z,1018.34
2022-12-12T17:13:18.336Z,1018.37
2022-12-12T17:15:47.496Z,1018.42
2022-12-12T17:18:15.598Z,1018.40
2022-12-12T17:20:45.809Z,1018.40
2022-12-12T17:23:29.327Z,1018.45
2022-12-12T17:26:03.121Z,1018.49
2022-12-12T17:28:32.656Z,1018.58
2022-12-12T17:31:00.560Z,1018.53
2022-12-12T17:33:30.893Z,1018.44
2022-12-12T17:36:02.074Z,1018.48
2022-12-12T17:38:30.895Z,1018.52
2022-12-12T17:41:02.409Z,1018.62
2022-12-12T17:43:29.333Z,1018.58
2022-12-12T17:46:00.998Z,1018.60
2022-12-12T17:48:28.843Z,1018.63
2022-12-12T17:50:57.555Z,1018.75
2022-12-12T17:53:26.143Z,1018.81
2022-12-12T17:56:01.119Z,1018.83
2022-12-12T17:58:34.454Z,1018.95
2022-12-12T18:01:09.488Z,1018.92
2022-12-12T18:03:36.530Z,1019.03
2022-12-12T18:06:03.480Z,1018.90
2022-12-12T18:08:32.828Z,1018.96
2022-12-12T18:10:59.656Z,1018.98
2022-12-12T18:13:26.953Z,1019.03
2022-12-12T18:15:54.797Z,1019.16
2022-12-12T18:18:23.368Z,1019.15
2022-12-12T18:20:53.055Z,1019.18
2022-12-12T18:23:21.244Z,1019.30
2022-12-12T18:25:51.286Z,1019.34
2022-12-12T18:28:19.576Z,1019.33
2022-12-12T18:30:50.353Z,1019.32
2022-12-12T18:33:20.317Z,1019.16
2022-12-12T18:35:48.744Z,1019.24
2022-12-12T18:38:18.022Z,1019.13
2022-12-12T18:40:48.876Z,1019.20
2022-12-12T18:43:17.184Z,1019.33
2022-12-12T18:45:44.154Z,1019.39
2022-12-12T18:48:10.980Z,1019.44
2022-12-12T18:50:37.947Z,1019.45
2022-12-12T18:53:04.706Z,1019.51
2022-12-12T18:55:31.721Z,1019.50
2022-12-12T18:57:58.551Z,1019.44
2022-12-12T19:00:27.580Z,1019.48
2022-12-12T19:02:54.305Z,1019.52
2022-12-12T19:05:22.162Z,1019.58
2022-12-12T19:07:49.265Z,1019.59
2022-12-12T19:10:17.070Z,1019.67
2022-12-12T19:12:44.001Z,1019.51
2022-12-12T19:15:18.772Z,1019.61
2022-12-12T19:17:46.989Z,1019.61
2022-12-12T19:20:15.890Z,1019.68
2022-12-12T19:22:46.831Z,1019.72
2022-12-12T19:25:14.447Z,1019.90
2022-12-12T19:27:41.475Z,1019.89
2022-12-12T19:30:09.546Z,1019.85
2022-12-12T19:32:36.525Z,1019.86
2022-12-12T19:35:05.372Z,1019.82
2022-12-12T19:37:32.349Z,1019.93
2022-12-12T19:39:59.273Z,1020.19
2022-12-12T19:42:28.226Z,1020.07
2022-12-12T19:44:55.017Z,1020.08
2022-12-12T19:47:21.906Z,1020.03
2022-12-12T19:49:49.605Z,1020.00
2022-12-12T19:52:18.144Z,1019.91
2022-12-12T19:54:44.856Z,1019.97
2022-12-12T19:57:11.744Z,1019.83
2022-12-12T19:59:38.584Z,1019.90
2022-12-12T20:02:07.397Z,1019.95
2022-12-12T20:04:34.138Z,1019.98
2022-12-12T20:07:01.025Z,1019.97
2022-12-12T20:09:30.733Z,1020.08
2022-12-12T20:11:59.849Z,1020.08
2022-12-12T20:14:29.440Z,1020.13
2022-12-12T20:16:56.985Z,1020.23
2022-12-12T20:19:25.136Z,1020.18
2022-12-12T20:22:00.921Z,1020.24
2022-12-12T20:24:31.153Z,1020.33
2022-12-12T20:26:58.062Z,1020.41
2022-12-12T20:29:25.054Z,1020.48
2022-12-12T20:31:51.852Z,1020.54
2022-12-12T20:34:20.190Z,1020.49
2022-12-12T20:36:47.147Z,1020.52
2022-12-12T20:39:18.717Z,1020.55
2022-12-12T20:41:47.087Z,1020.58
2022-12-12T20:44:14.197Z,1020.57
2022-12-12T20:46:43.259Z,1020.49
2022-12-12T20:49:13.743Z,1020.45
2022-12-12T20:51:57.662Z,1020.56
2022-12-12T20:54:26.289Z,1020.45
2022-12-12T20:56:57.729Z,1020.40
2022-12-12T20:59:24.962Z,1020.49
2022-12-12T21:01:53.345Z,1020.40
2022-12-12T21:04:20.545Z,1020.46
2022-12-12T21:06:48.933Z,1020.51
2022-12-12T21:09:23.211Z,1020.55
2022-12-12T21:11:52.274Z,1020.61
2022-12-12T21:14:20.481Z,1020.63
2022-12-12T21:16:48.657Z,1020.59
2022-12-12T21:19:16.232Z,1020.53
2022-12-12T21:21:43.862Z,1020.60
2022-12-12T21:24:12.019Z,1020.68
2022-12-12T21:26:39.207Z,1020.66
2022-12-12T21:29:06.381Z,1020.73
2022-12-12T21:31:37.163Z,1020.80
2022-12-12T21:34:05.300Z,1020.76
2022-12-12T21:36:33.409Z,1020.83
2022-12-12T21:39:02.120Z,1020.74
2022-12-12T21:41:28.884Z,1020.79
2022-12-12T21:43:56.934Z,1020.79
2022-12-12T21:46:25.367Z,1020.76
2022-12-12T21:48:54.015Z,1020.86
2022-12-12T21:51:20.736Z,1020.88
2022-12-12T21:53:47.845Z,1020.92
2022-12-12T21:56:15.832Z,1020.96
2022-12-12T21:58:44.719Z,1020.99
2022-12-12T22:01:14.670Z,1020.94
2022-12-12T22:03:42.375Z,1020.93
2022-12-12T22:06:13.361Z,1020.93
2022-12-12T22:08:41.534Z,1020.87
2022-12-12T22:11:09.143Z,1020.98
2022-12-12T22:13:40.039Z,1020.90
2022-12-12T22:16:10.456Z,1020.90
2022-12-12T22:18:37.459Z,1021.06
2022-12-12T22:21:06.124Z,1021.04
2022-12-12T22:23:35.777Z,1021.04
2022-12-12T22:26:12.944Z,1021.10
2022-12-12T22:28:39.731Z,1021.02
2022-12-12T22:31:08.985Z,1020.99
2022-12-12T22:33:35.873Z,1021.05
2022-12-12T22:36:03.461Z,1021.07
2022-12-12T22:38:32.244Z,1021.07
2022-12-12T22:41:05.769Z,1021.11
2022-12-12T22:43:32.792Z,1021.13
2022-12-12T22:46:03.351Z,1021.22
2022-12-12T22:48:30.147Z,1021.27
2022-12-12T22:50:58.069Z,1021.31
2022-12-12T22:53:24.833Z,1021.18
2022-12-12T22:55:52.867Z,1021.25
2022-12-12T22:58:21.075Z,1021.05
2022-12-12T23:00:50.024Z,1021.10
2022-12-12T23:03:16.769Z,1021.13
2022-12-12T23:05:43.522Z,1021.15
2022-12-12T23:08:10.828Z,1021.07
2022-12-12T23:10:37.617Z,1021.19
2022-12-12T23:13:05.468Z,1021.24
2022-12-12T23:15:35.824Z,1021.25
2022-12-12T23:18:02.794Z,1021.31
2022-12-12T23:20:29.651Z,1021.35
2022-12-12T23:22:56.427Z,1021.20
2022-12-12T23:25:23.120Z,1021.20
2022-12-12T23:27:50.365Z,1021.19
2022-12-12T23:30:17.216Z,1021.24
2022-12-12T23:32:45.388Z,1021.20
2022-12-12T23:35:12.579Z,1021.22
2022-12-12T23:37:39.905Z,1021.29
2022-12-12T23:40:07.720Z,1021.28
2022-12-12T23:42:34.565Z,1021.33
2022-12-12T23:45:01.424Z,1021.25
2022-12-12T23:47:28.406Z,1021.34
2022-12-12T23:49:56.513Z,1021.30
2022-12-12T23:52:23.486Z,1021.31
2022-12-12T23:54:51.449Z,1021.24
2022-12-12T23:57:18.170Z,1021.27
2022-12-12T23:59:45.067Z,1021.21
